createdAt,value
2022-10-15T00:00:26.014Z,26.50
2022-10-15T00:02:28.876Z,25.93
2022-10-15T00:04:31.834Z,26.70
2022-10-15T00:06:34.814Z,25.97
2022-10-15T00:08:37.699Z,26.60
2022-10-15T00:10:40.557Z,27.87
2022-10-15T00:12:44.782Z,27.90
2022-10-15T00:14:47.618Z,28.13
2022-10-15T00:16:50.476Z,28.90
2022-10-15T00:18:53.472Z,27.30
2022-10-15T00:20:56.317Z,27.07
2022-10-15T00:22:59.181Z,26.80
2022-10-15T00:25:02.040Z,28.47
2022-10-15T00:27:04.967Z,24.60
2022-10-15T00:29:09.240Z,27.00
2022-10-15T00:31:13.078Z,27.20
2022-10-15T00:33:15.930Z,27.30
2022-10-15T00:35:18.801Z,24.97
2022-10-15T00:37:22.291Z,25.83
2022-10-15T00:39:25.138Z,26.73
2022-10-15T00:41:29.484Z,26.20
2022-10-15T00:43:43.322Z,25.93
2022-10-15T00:45:47.513Z,25.43
2022-10-15T00:47:50.385Z,26.77
2022-10-15T00:49:57.120Z,26.20
2022-10-15T00:52:02.057Z,27.40
2022-10-15T00:54:05.074Z,27.80
2022-10-15T00:56:08.536Z,29.03
2022-10-15T01:00:20.864Z,29.47
2022-10-15T01:02:25.428Z,26.17
2022-10-15T01:04:28.590Z,26.60
2022-10-15T01:06:31.443Z,28.00
2022-10-15T01:08:34.438Z,27.53
2022-10-15T01:10:43.702Z,28.03
2022-10-15T01:12:57.037Z,28.33
2022-10-15T01:15:03.432Z,27.83
2022-10-15T01:17:08.349Z,26.83
2022-10-15T01:19:19.032Z,24.10
2022-10-15T01:21:22.865Z,24.23
2022-10-15T01:24:12.621Z,21.47
2022-10-15T01:26:36.861Z,21.70
2022-10-15T01:28:44.253Z,23.20
2022-10-15T01:30:49.472Z,24.80
2022-10-15T01:33:04.467Z,25.33
2022-10-15T01:35:11.158Z,25.77
2022-10-15T01:37:15.166Z,25.00
2022-10-15T01:39:20.949Z,24.73
2022-10-15T01:41:26.527Z,19.00
2022-10-15T01:43:31.724Z,18.60
2022-10-15T01:45:37.930Z,17.67
2022-10-15T01:47:44.227Z,17.70
2022-10-15T01:49:47.121Z,18.87
2022-10-15T01:51:50.039Z,19.77
2022-10-15T01:53:52.906Z,21.60
2022-10-15T01:55:56.950Z,20.50
2022-10-15T01:57:59.796Z,22.27
2022-10-15T02:00:03.999Z,20.43
2022-10-15T02:02:06.879Z,21.73
2022-10-15T02:04:19.719Z,21.07
2022-10-15T02:06:24.940Z,23.70
2022-10-15T02:08:32.096Z,18.87
2022-10-15T02:10:39.391Z,16.80
2022-10-15T02:12:45.763Z,14.87
2022-10-15T02:14:52.246Z,16.50
2022-10-15T02:16:57.288Z,15.87
2022-10-15T02:19:01.761Z,18.97
2022-10-15T02:21:07.687Z,18.70
2022-10-15T02:23:13.673Z,17.70
2022-10-15T02:25:17.708Z,18.57
2022-10-15T02:27:20.530Z,18.13
2022-10-15T02:29:24.860Z,17.27
2022-10-15T02:31:27.710Z,17.47
2022-10-15T02:33:30.736Z,18.37
2022-10-15T02:35:33.640Z,20.20
2022-10-15T02:37:37.848Z,15.97
2022-10-15T02:39:40.651Z,14.60
2022-10-15T02:41:43.654Z,9.07
2022-10-15T02:43:46.459Z,18.67
2022-10-15T02:45:49.408Z,11.80
2022-10-15T02:47:52.194Z,17.77
2022-10-15T02:49:55.004Z,16.20
2022-10-15T02:51:57.841Z,11.33
2022-10-15T02:54:02.413Z,12.73
2022-10-15T02:56:05.546Z,11.50
2022-10-15T02:58:08.347Z,12.23
2022-10-15T03:00:12.287Z,11.73
2022-10-15T03:02:18.376Z,15.17
2022-10-15T03:04:22.417Z,12.23
2022-10-15T03:06:25.225Z,11.07
2022-10-15T03:08:28.052Z,15.87
2022-10-15T03:10:32.248Z,18.37
2022-10-15T03:12:35.094Z,16.80
2022-10-15T03:14:37.893Z,12.73
2022-10-15T03:16:40.741Z,15.73
2022-10-15T03:18:43.575Z,15.40
2022-10-15T03:20:47.301Z,16.50
2022-10-15T03:22:50.116Z,18.33
2022-10-15T03:24:53.083Z,18.50
2022-10-15T03:26:57.269Z,22.90
2022-10-15T03:29:00.076Z,21.80
2022-10-15T03:31:02.993Z,26.50
2022-10-15T03:33:05.864Z,26.20
2022-10-15T03:35:09.373Z,29.37
2022-10-15T03:37:12.237Z,27.30
2022-10-15T03:39:15.357Z,28.90
2022-10-15T03:41:18.173Z,29.13
2022-10-15T03:43:24.764Z,25.27
2022-10-15T03:45:27.712Z,33.07
2022-10-15T03:47:30.553Z,29.30
2022-10-15T03:49:33.371Z,28.10
2022-10-15T03:51:36.447Z,28.97
2022-10-15T03:53:39.286Z,31.00
2022-10-15T03:55:42.083Z,31.67
2022-10-15T03:57:44.936Z,25.70
2022-10-15T03:59:49.087Z,29.60
2022-10-15T04:01:51.896Z,29.50
2022-10-15T04:03:54.708Z,31.20
2022-10-15T04:05:59.823Z,30.73
2022-10-15T04:08:05.875Z,32.03
2022-10-15T04:10:09.692Z,32.53
2022-10-15T04:12:12.516Z,31.83
2022-10-15T04:14:15.318Z,34.33
2022-10-15T04:16:19.490Z,36.40
2022-10-15T04:18:22.638Z,34.90
2022-10-15T04:20:25.457Z,32.70
2022-10-15T04:22:28.299Z,33.60
2022-10-15T04:24:31.106Z,35.20
2022-10-15T04:26:33.950Z,32.93
2022-10-15T04:28:36.831Z,32.00
2022-10-15T04:30:39.704Z,33.13
2022-10-15T04:32:43.882Z,32.30
2022-10-15T04:34:47.686Z,30.67
2022-10-15T04:36:50.868Z,29.73
2022-10-15T04:38:53.748Z,28.17
2022-10-15T04:41:01.541Z,29.03
2022-10-15T04:43:04.363Z,28.03
2022-10-15T04:45:08.730Z,32.47
2022-10-15T04:47:11.591Z,31.77
2022-10-15T04:49:15.752Z,32.53
2022-10-15T04:51:19.384Z,32.53
2022-10-15T04:53:22.307Z,33.73
2022-10-15T04:55:25.211Z,34.10
2022-10-15T04:57:28.074Z,32.87
2022-10-15T04:59:30.946Z,33.73
2022-10-15T05:01:33.789Z,36.40
2022-10-15T05:03:38.711Z,33.67
2022-10-15T05:05:45.253Z,33.77
2022-10-15T05:07:48.169Z,34.57
2022-10-15T05:09:51.008Z,34.70
2022-10-15T05:11:55.406Z,33.20
2022-10-15T05:13:58.502Z,32.27
2022-10-15T05:16:10.157Z,32.50
2022-10-15T05:18:13.267Z,33.97
2022-10-15T05:20:16.140Z,30.87
2022-10-15T05:22:20.558Z,31.60
2022-10-15T05:24:23.493Z,27.83
2022-10-15T05:26:27.018Z,29.87
2022-10-15T05:28:30.146Z,29.70
2022-10-15T05:30:33.310Z,28.30
2022-10-15T05:32:36.151Z,30.67
2022-10-15T05:34:38.993Z,33.27
2022-10-15T05:36:41.804Z,34.30
2022-10-15T05:38:46.079Z,30.47
2022-10-15T05:40:49.404Z,29.93
2022-10-15T05:44:57.379Z,24.33
2022-10-15T05:47:00.206Z,28.23
2022-10-15T05:49:03.042Z,17.60
2022-10-15T05:51:06.810Z,39.20
2022-10-15T05:53:09.683Z,21.20
2022-10-15T05:55:13.887Z,24.90
2022-10-15T05:57:16.705Z,22.67
2022-10-15T05:59:19.586Z,22.80
2022-10-15T06:01:23.070Z,18.00
2022-10-15T06:03:26.194Z,19.90
2022-10-15T06:05:29.063Z,23.27
2022-10-15T06:07:32.580Z,23.27
2022-10-15T06:09:35.414Z,25.57
2022-10-15T06:11:39.683Z,24.87
2022-10-15T06:13:43.169Z,26.10
2022-10-15T06:15:46.661Z,24.67
2022-10-15T06:17:49.505Z,25.27
2022-10-15T06:19:52.349Z,29.60
2022-10-15T06:21:55.201Z,26.77
2022-10-15T06:23:58.061Z,26.37
2022-10-15T06:26:03.385Z,27.33
2022-10-15T06:28:07.852Z,29.20
2022-10-15T06:30:11.381Z,30.60
2022-10-15T06:32:14.226Z,32.50
2022-10-15T06:34:17.278Z,30.43
2022-10-15T06:36:21.666Z,31.03
2022-10-15T06:38:25.421Z,31.77
2022-10-15T06:40:28.265Z,29.40
2022-10-15T06:42:31.097Z,31.73
2022-10-15T06:44:35.313Z,30.63
2022-10-15T06:46:38.147Z,30.27
2022-10-15T06:48:41.017Z,31.50
2022-10-15T06:50:43.881Z,34.00
2022-10-15T06:52:46.764Z,31.00
2022-10-15T06:54:49.638Z,50.43
2022-10-15T06:56:52.489Z,72.90
2022-10-15T06:58:55.361Z,61.20
2022-10-15T07:01:02.529Z,58.90
2022-10-15T07:03:05.932Z,45.30
2022-10-15T07:05:09.629Z,40.30
2022-10-15T07:07:12.741Z,43.50
2022-10-15T07:09:15.616Z,41.00
2022-10-15T07:11:18.742Z,42.93
2022-10-15T07:13:21.757Z,41.97
2022-10-15T07:15:24.616Z,46.60
2022-10-15T07:17:30.604Z,44.30
2022-10-15T07:19:33.462Z,49.10
2022-10-15T07:21:36.317Z,42.67
2022-10-15T07:23:39.191Z,60.85
2022-10-15T07:25:42.338Z,52.23
2022-10-15T07:27:45.325Z,45.80
2022-10-15T07:29:48.413Z,45.87
2022-10-15T07:31:51.335Z,43.07
2022-10-15T07:33:55.588Z,45.80
2022-10-15T07:35:58.412Z,41.80
2022-10-15T07:38:01.946Z,39.70
2022-10-15T07:40:05.242Z,40.57
2022-10-15T07:42:08.130Z,39.10
2022-10-15T07:44:11.402Z,41.40
2022-10-15T07:46:14.279Z,41.20
2022-10-15T07:48:17.209Z,42.97
2022-10-15T07:50:21.529Z,38.93
2022-10-15T07:52:24.702Z,38.50
2022-10-15T07:54:27.824Z,39.00
2022-10-15T07:56:30.694Z,40.10
2022-10-15T07:58:34.654Z,38.10
2022-10-15T08:00:37.744Z,38.63
2022-10-15T08:02:40.640Z,38.37
2022-10-15T08:04:43.533Z,94.57
2022-10-15T08:06:49.642Z,40.87
2022-10-15T08:08:52.498Z,37.30
2022-10-15T08:10:55.363Z,41.40
2022-10-15T08:12:58.190Z,36.43
2022-10-15T08:15:01.065Z,38.23
2022-10-15T08:17:04.096Z,37.97
2022-10-15T08:19:06.966Z,36.33
2022-10-15T08:21:10.012Z,37.50
2022-10-15T08:23:17.409Z,36.80
2022-10-15T08:25:20.254Z,37.00
2022-10-15T08:27:23.114Z,35.60
2022-10-15T08:29:26.187Z,36.30
2022-10-15T08:31:29.025Z,36.70
2022-10-15T08:33:31.913Z,36.30
2022-10-15T08:35:36.743Z,39.37
2022-10-15T08:37:39.634Z,39.63
2022-10-15T08:39:43.867Z,40.47
2022-10-15T08:41:47.362Z,38.93
2022-10-15T08:43:50.206Z,38.00
2022-10-15T08:45:54.922Z,38.40
2022-10-15T08:47:59.469Z,39.23
2022-10-15T08:50:03.506Z,41.00
2022-10-15T08:52:09.863Z,35.13
2022-10-15T08:54:15.180Z,35.47
2022-10-15T08:56:22.136Z,35.93
2022-10-15T08:58:26.952Z,38.00
2022-10-15T09:00:31.115Z,38.80
2022-10-15T09:02:36.767Z,36.90
2022-10-15T09:04:42.896Z,37.57
2022-10-15T09:06:45.741Z,38.10
2022-10-15T09:08:52.802Z,39.37
2022-10-15T09:10:58.270Z,35.60
2022-10-15T09:13:03.410Z,35.33
2022-10-15T09:15:06.985Z,34.30
2022-10-15T09:17:16.614Z,33.93
2022-10-15T09:19:20.307Z,32.40
2022-10-15T09:21:24.940Z,34.50
2022-10-15T09:23:29.887Z,31.20
2022-10-15T09:25:35.402Z,31.87
2022-10-15T09:27:39.008Z,32.70
2022-10-15T09:29:46.057Z,31.30
2022-10-15T09:31:51.526Z,32.30
2022-10-15T09:33:56.956Z,31.37
2022-10-15T09:36:03.826Z,28.60
2022-10-15T09:38:14.821Z,27.03
2022-10-15T09:40:28.432Z,28.27
2022-10-15T09:42:32.248Z,24.70
2022-10-15T09:44:37.271Z,26.63
2022-10-15T09:46:45.969Z,24.87
2022-10-15T09:48:49.755Z,25.00
2022-10-15T09:50:56.858Z,24.20
2022-10-15T09:53:05.105Z,25.90
2022-10-15T09:55:11.762Z,25.70
2022-10-15T09:57:15.164Z,23.70
2022-10-15T09:59:18.527Z,23.20
2022-10-15T10:01:22.632Z,22.37
2022-10-15T10:03:28.018Z,22.60
2022-10-15T10:05:31.909Z,22.40
2022-10-15T10:07:35.581Z,21.10
2022-10-15T10:09:40.117Z,20.57
2022-10-15T10:11:48.211Z,19.10
2022-10-15T10:13:55.653Z,19.67
2022-10-15T10:16:02.830Z,19.47
2022-10-15T10:18:06.658Z,18.83
2022-10-15T10:20:19.881Z,18.73
2022-10-15T10:22:23.147Z,17.73
2022-10-15T10:24:30.254Z,17.53
2022-10-15T10:26:35.807Z,17.50
2022-10-15T10:28:44.247Z,18.13
2022-10-15T10:31:03.304Z,17.40
2022-10-15T10:33:06.161Z,17.80
2022-10-15T10:35:09.228Z,15.67
2022-10-15T10:37:13.749Z,16.23
2022-10-15T10:39:25.362Z,15.80
2022-10-15T10:41:44.305Z,14.90
2022-10-15T10:43:53.992Z,13.17
2022-10-15T10:45:58.463Z,13.90
2022-10-15T10:48:01.398Z,11.93
2022-10-15T10:50:04.515Z,11.40
2022-10-15T10:52:07.638Z,13.73
2022-10-15T10:54:14.462Z,12.57
2022-10-15T10:56:18.783Z,11.97
2022-10-15T10:58:26.259Z,12.40
2022-10-15T11:00:35.273Z,11.53
2022-10-15T11:02:41.477Z,10.97
2022-10-15T11:04:44.341Z,11.57
2022-10-15T11:06:54.071Z,9.80
2022-10-15T11:09:03.535Z,9.73
2022-10-15T11:11:10.196Z,10.93
2022-10-15T11:13:25.395Z,10.90
2022-10-15T11:15:37.583Z,11.00
2022-10-15T11:17:44.799Z,10.10
2022-10-15T11:20:06.217Z,9.33
2022-10-15T11:22:25.979Z,11.10
2022-10-15T11:24:42.562Z,9.23
2022-10-15T11:27:11.729Z,10.27
2022-10-15T11:29:17.360Z,9.73
2022-10-15T11:33:53.558Z,10.30
2022-10-15T11:36:01.423Z,9.70
2022-10-15T11:38:11.618Z,8.50
2022-10-15T11:40:17.792Z,9.37
2022-10-15T11:42:24.385Z,8.10
2022-10-15T11:44:37.714Z,9.13
2022-10-15T11:46:45.689Z,9.20
2022-10-15T11:48:57.173Z,8.47
2022-10-15T11:51:02.362Z,8.33
2022-10-15T11:53:17.209Z,8.27
2022-10-15T11:55:20.874Z,8.90
2022-10-15T11:57:25.080Z,9.30
2022-10-15T11:59:34.715Z,8.90
2022-10-15T12:01:40.153Z,8.90
2022-10-15T12:03:50.369Z,8.53
2022-10-15T12:05:54.511Z,8.60
2022-10-15T12:07:57.407Z,7.90
2022-10-15T12:10:04.573Z,7.90
2022-10-15T12:12:10.845Z,6.23
2022-10-15T12:14:19.409Z,7.07
2022-10-15T12:16:26.594Z,7.80
2022-10-15T12:18:32.504Z,7.83
2022-10-15T12:20:35.745Z,7.53
2022-10-15T12:22:40.421Z,6.53
2022-10-15T12:24:54.105Z,5.70
2022-10-15T12:26:56.974Z,5.40
2022-10-15T12:29:03.005Z,6.37
2022-10-15T12:31:07.603Z,5.60
2022-10-15T12:33:24.864Z,5.37
2022-10-15T12:35:36.359Z,5.30
2022-10-15T12:37:39.243Z,5.40
2022-10-15T12:39:57.722Z,5.70
2022-10-15T12:42:00.576Z,5.50
2022-10-15T12:44:08.667Z,5.37
2022-10-15T12:46:12.937Z,6.50
2022-10-15T12:48:28.971Z,5.10
2022-10-15T12:50:32.598Z,5.20
2022-10-15T12:52:58.312Z,4.70
2022-10-15T12:55:16.700Z,4.83
2022-10-15T12:57:54.489Z,4.60
2022-10-15T12:59:58.180Z,5.23
2022-10-15T13:02:02.396Z,4.67
2022-10-15T13:04:05.386Z,4.27
2022-10-15T13:06:24.829Z,5.20
2022-10-15T13:08:30.301Z,4.17
2022-10-15T13:10:35.905Z,4.00
2022-10-15T13:12:38.746Z,4.93
2022-10-15T13:14:42.846Z,4.97
2022-10-15T13:16:45.775Z,4.10
2022-10-15T13:18:51.673Z,3.97
2022-10-15T13:20:56.271Z,3.50
2022-10-15T13:23:18.819Z,3.73
2022-10-15T13:25:32.473Z,4.10
2022-10-15T13:27:37.511Z,4.57
2022-10-15T13:29:40.382Z,4.20
2022-10-15T13:31:44.946Z,4.10
2022-10-15T13:33:51.915Z,4.40
2022-10-15T13:35:54.792Z,3.90
2022-10-15T13:37:57.823Z,3.90
2022-10-15T13:40:04.622Z,3.80
2022-10-15T13:42:14.884Z,4.17
2022-10-15T13:44:21.871Z,4.00
2022-10-15T13:46:24.941Z,3.97
2022-10-15T13:48:28.969Z,3.53
2022-10-15T13:50:33.460Z,4.00
2022-10-15T13:52:39.978Z,4.23
2022-10-15T13:54:42.862Z,4.67
2022-10-15T13:56:50.228Z,4.23
2022-10-15T13:58:53.366Z,4.37
2022-10-15T14:00:58.890Z,4.17
2022-10-15T14:03:09.546Z,3.90
2022-10-15T14:05:18.207Z,4.07
2022-10-15T14:07:27.206Z,3.90
2022-10-15T14:09:32.265Z,3.80
2022-10-15T14:11:35.094Z,4.17
2022-10-15T14:13:38.086Z,3.97
2022-10-15T14:15:42.835Z,3.60
2022-10-15T14:17:45.675Z,3.80
2022-10-15T14:19:58.119Z,3.57
2022-10-15T14:22:17.169Z,4.10
2022-10-15T14:24:22.281Z,3.90
2022-10-15T14:26:25.223Z,3.50
2022-10-15T14:28:29.237Z,2.93
2022-10-15T14:30:33.236Z,3.53
2022-10-15T14:32:46.095Z,3.17
2022-10-15T14:34:49.613Z,3.20
2022-10-15T14:36:52.504Z,3.30
2022-10-15T14:38:55.714Z,2.87
2022-10-15T14:41:04.947Z,2.30
2022-10-15T14:43:16.037Z,2.07
2022-10-15T14:45:24.526Z,2.30
2022-10-15T14:47:29.170Z,1.67
2022-10-15T14:49:33.217Z,1.30
2022-10-15T14:51:36.079Z,1.50
2022-10-15T14:53:39.820Z,1.40
2022-10-15T14:55:43.835Z,1.70
2022-10-15T14:57:49.855Z,1.77
2022-10-15T14:59:53.461Z,1.37
2022-10-15T15:01:59.961Z,1.40
2022-10-15T15:04:05.618Z,1.57
2022-10-15T15:06:08.681Z,1.30
2022-10-15T15:08:11.501Z,1.60
2022-10-15T15:10:14.368Z,1.43
2022-10-15T15:12:22.861Z,1.40
2022-10-15T15:14:29.910Z,1.40
2022-10-15T15:16:32.746Z,1.20
2022-10-15T15:18:35.603Z,1.60
2022-10-15T15:20:38.477Z,1.63
2022-10-15T15:22:41.769Z,1.60
2022-10-15T15:24:44.764Z,1.70
2022-10-15T15:26:47.746Z,1.40
2022-10-15T15:28:50.668Z,1.40
2022-10-15T15:30:58.712Z,1.33
2022-10-15T15:33:02.062Z,1.13
2022-10-15T15:35:10.238Z,1.47
2022-10-15T15:37:16.672Z,1.43
2022-10-15T15:39:19.553Z,1.37
2022-10-15T15:41:23.828Z,1.60
2022-10-15T15:43:26.724Z,1.40
2022-10-15T15:45:29.642Z,1.57
2022-10-15T15:47:34.242Z,1.37
2022-10-15T15:49:37.803Z,1.50
2022-10-15T15:51:41.850Z,1.57
2022-10-15T15:53:44.697Z,1.40
2022-10-15T15:55:47.557Z,1.60
2022-10-15T15:57:50.410Z,1.30
2022-10-15T15:59:53.276Z,1.40
2022-10-15T16:01:56.198Z,1.37
2022-10-15T16:04:00.477Z,1.17
2022-10-15T16:06:03.529Z,1.50
2022-10-15T16:08:06.495Z,1.43
2022-10-15T16:10:11.936Z,1.30
2022-10-15T16:12:14.814Z,1.60
2022-10-15T16:14:17.647Z,0.97
2022-10-15T16:16:20.484Z,1.50
2022-10-15T16:18:23.416Z,1.20
2022-10-15T16:20:27.646Z,1.20
2022-10-15T16:22:30.485Z,1.30
2022-10-15T16:24:33.364Z,1.10
2022-10-15T16:26:36.199Z,1.37
2022-10-15T16:28:39.107Z,1.40
2022-10-15T16:30:42.071Z,1.23
2022-10-15T16:32:44.921Z,1.00
2022-10-15T16:34:47.952Z,1.20
2022-10-15T16:36:52.168Z,1.20
2022-10-15T16:38:55.032Z,1.40
2022-10-15T16:40:57.869Z,1.30
2022-10-15T16:43:00.802Z,1.30
2022-10-15T16:45:03.689Z,1.00
2022-10-15T16:47:06.626Z,1.20
2022-10-15T16:49:10.068Z,1.20
2022-10-15T16:51:13.862Z,1.20
2022-10-15T16:53:18.069Z,1.13
2022-10-15T16:55:20.949Z,1.53
2022-10-15T16:57:23.950Z,1.27
2022-10-15T16:59:27.084Z,1.47
2022-10-15T17:01:30.321Z,1.70
2022-10-15T17:03:33.882Z,1.40
2022-10-15T17:05:36.760Z,1.50
2022-10-15T17:07:39.626Z,1.47
2022-10-15T17:09:44.933Z,1.50
2022-10-15T17:11:48.314Z,1.40
2022-10-15T17:13:52.126Z,1.13
2022-10-15T17:15:56.897Z,1.40
2022-10-15T17:18:03.290Z,1.33
2022-10-15T17:20:08.108Z,1.30
2022-10-15T17:22:11.249Z,1.20
2022-10-15T17:24:14.825Z,1.40
2022-10-15T17:26:20.182Z,1.43
2022-10-15T17:28:23.032Z,1.70
2022-10-15T17:30:26.013Z,1.80
2022-10-15T17:32:28.863Z,1.70
2022-10-15T17:34:31.747Z,1.43
2022-10-15T17:36:37.251Z,1.90
2022-10-15T17:38:40.184Z,1.50
2022-10-15T17:40:43.218Z,1.20
2022-10-15T17:42:47.456Z,1.40
2022-10-15T17:44:50.324Z,1.40
2022-10-15T17:46:53.941Z,1.77
2022-10-15T17:48:56.986Z,1.77
2022-10-15T17:51:00.460Z,1.60
2022-10-15T17:53:04.582Z,1.47
2022-10-15T17:55:08.510Z,1.87
2022-10-15T17:57:11.348Z,1.60
2022-10-15T17:59:15.602Z,1.60
2022-10-15T18:01:28.014Z,1.60
2022-10-15T18:03:36.513Z,1.60
2022-10-15T18:05:39.381Z,1.37
2022-10-15T18:07:42.258Z,1.50
2022-10-15T18:09:45.209Z,1.80
2022-10-15T18:11:49.018Z,1.20
2022-10-15T18:13:51.888Z,1.80
2022-10-15T18:15:56.173Z,1.60
2022-10-15T18:17:59.022Z,1.50
2022-10-15T18:20:02.790Z,1.87
2022-10-15T18:22:05.661Z,1.40
2022-10-15T18:24:08.517Z,1.43
2022-10-15T18:26:14.652Z,1.53
2022-10-15T18:28:20.501Z,1.77
2022-10-15T18:30:23.405Z,1.60
2022-10-15T18:32:27.677Z,1.63
2022-10-15T18:34:33.170Z,1.47
2022-10-15T18:36:37.733Z,1.90
2022-10-15T18:38:42.876Z,1.30
2022-10-15T18:40:45.781Z,1.50
2022-10-15T18:42:49.052Z,1.20
2022-10-15T18:44:51.914Z,1.30
2022-10-15T18:46:54.819Z,1.40
2022-10-15T18:48:59.028Z,1.50
2022-10-15T18:51:02.317Z,1.30
2022-10-15T18:53:05.161Z,1.30
2022-10-15T18:55:09.168Z,1.40
2022-10-15T18:57:12.027Z,1.27
2022-10-15T18:59:14.908Z,2.03
2022-10-15T19:01:27.840Z,1.60
2022-10-15T19:03:30.757Z,1.43
2022-10-15T19:05:37.156Z,1.87
2022-10-15T19:07:40.019Z,1.60
2022-10-15T19:09:42.954Z,1.60
2022-10-15T19:11:46.808Z,1.57
2022-10-15T19:13:49.784Z,1.43
2022-10-15T19:15:52.655Z,1.60
2022-10-15T19:17:56.080Z,1.73
2022-10-15T19:19:58.987Z,1.80
2022-10-15T19:22:03.180Z,1.80
2022-10-15T19:24:06.556Z,1.60
2022-10-15T19:26:09.796Z,1.50
2022-10-15T19:28:12.770Z,1.30
2022-10-15T19:30:15.631Z,1.57
2022-10-15T19:32:18.505Z,1.40
2022-10-15T19:34:22.656Z,1.20
2022-10-15T19:36:26.879Z,1.70
2022-10-15T19:38:31.081Z,1.30
2022-10-15T19:40:37.097Z,1.97
2022-10-15T19:42:39.950Z,1.47
2022-10-15T19:44:42.956Z,2.33
2022-10-15T19:46:46.715Z,1.57
2022-10-15T19:48:49.637Z,1.60
2022-10-15T19:50:52.537Z,2.00
2022-10-15T19:52:55.379Z,2.10
2022-10-15T19:54:59.581Z,2.33
2022-10-15T19:57:02.437Z,2.30
2022-10-15T19:59:05.868Z,2.20
2022-10-15T20:01:08.778Z,2.03
2022-10-15T20:03:11.664Z,2.17
2022-10-15T20:05:15.537Z,2.33
2022-10-15T20:07:18.373Z,2.50
2022-10-15T20:09:21.245Z,2.93
2022-10-15T20:11:25.458Z,2.47
2022-10-15T20:13:28.310Z,2.43
2022-10-15T20:15:31.191Z,2.53
2022-10-15T20:17:34.046Z,2.80
2022-10-15T20:19:36.934Z,3.10
2022-10-15T20:21:39.871Z,2.53
2022-10-15T20:23:43.225Z,2.40
2022-10-15T20:25:46.259Z,2.67
2022-10-15T20:27:50.462Z,2.40
2022-10-15T20:29:53.333Z,1.80
2022-10-15T20:32:05.702Z,2.00
2022-10-15T20:34:14.080Z,2.20
2022-10-15T20:36:22.603Z,2.20
2022-10-15T20:38:26.694Z,2.10
2022-10-15T20:40:29.668Z,1.87
2022-10-15T20:42:34.063Z,2.20
2022-10-15T20:44:38.284Z,2.23
2022-10-15T20:46:43.333Z,1.73
2022-10-15T20:48:46.325Z,1.93
2022-10-15T20:50:49.381Z,1.60
2022-10-15T20:52:52.222Z,2.03
2022-10-15T20:54:55.327Z,2.00
2022-10-15T20:56:58.184Z,1.60
2022-10-15T20:59:01.029Z,1.60
2022-10-15T21:01:07.586Z,1.73
2022-10-15T21:03:10.462Z,1.97
2022-10-15T21:05:13.343Z,1.70
2022-10-15T21:07:16.239Z,1.77
2022-10-15T21:09:19.125Z,1.97
2022-10-15T21:11:22.014Z,1.80
2022-10-15T21:13:24.846Z,1.93
2022-10-15T21:15:27.718Z,2.20
2022-10-15T21:17:31.909Z,1.80
2022-10-15T21:19:34.749Z,2.10
2022-10-15T21:21:37.658Z,1.73
2022-10-15T21:23:41.329Z,1.77
2022-10-15T21:25:44.212Z,1.33
2022-10-15T21:27:47.061Z,1.87
2022-10-15T21:29:50.209Z,1.67
2022-10-15T21:31:53.457Z,1.93
2022-10-15T21:33:57.699Z,2.07
2022-10-15T21:36:10.705Z,1.57
2022-10-15T21:38:13.561Z,1.80
2022-10-15T21:40:16.456Z,1.80
2022-10-15T21:42:19.272Z,1.63
2022-10-15T21:44:22.113Z,1.73
2022-10-15T21:46:25.000Z,2.00
2022-10-15T21:48:28.556Z,1.53
2022-10-15T21:50:32.833Z,1.77
2022-10-15T21:52:35.679Z,1.37
2022-10-15T21:54:38.565Z,1.63
2022-10-15T21:56:41.428Z,1.63
2022-10-15T21:58:44.407Z,1.57
2022-10-15T22:00:47.333Z,1.60
2022-10-15T22:02:51.112Z,1.17
2022-10-15T22:04:53.994Z,1.50
2022-10-15T22:06:58.175Z,2.00
2022-10-15T22:09:01.176Z,1.90
2022-10-15T22:11:11.285Z,1.50
2022-10-15T22:13:14.245Z,1.43
2022-10-15T22:15:17.253Z,1.50
2022-10-15T22:17:20.829Z,1.90
2022-10-15T22:19:23.698Z,1.67
2022-10-15T22:21:27.296Z,1.57
2022-10-15T22:23:31.504Z,1.63
2022-10-15T22:25:34.371Z,1.83
2022-10-15T22:27:37.235Z,1.60
2022-10-15T22:29:41.088Z,1.20
2022-10-15T22:31:43.983Z,1.40
2022-10-15T22:33:46.867Z,2.40
2022-10-15T22:35:49.725Z,1.63
2022-10-15T22:37:55.122Z,1.80
2022-10-15T22:39:59.361Z,1.57
2022-10-15T22:42:02.598Z,1.60
2022-10-15T22:44:05.927Z,1.47
2022-10-15T22:46:08.809Z,1.50
2022-10-15T22:48:11.673Z,1.73
2022-10-15T22:50:14.566Z,1.50
2022-10-15T22:52:17.398Z,1.30
2022-10-15T22:54:21.736Z,1.50
2022-10-15T22:56:26.362Z,1.37
2022-10-15T22:58:29.362Z,1.10
2022-10-15T23:00:32.685Z,1.53
2022-10-15T23:02:35.538Z,1.40
2022-10-15T23:04:38.384Z,1.67
2022-10-15T23:06:41.272Z,1.30
2022-10-15T23:08:45.201Z,1.50
2022-10-15T23:10:48.077Z,1.90
2022-10-15T23:12:52.285Z,1.40
2022-10-15T23:14:55.157Z,1.50
2022-10-15T23:16:58.017Z,1.53
2022-10-15T23:19:01.633Z,1.53
2022-10-15T23:21:06.184Z,1.57
2022-10-15T23:23:09.035Z,1.37
2022-10-15T23:25:11.909Z,1.33
2022-10-15T23:27:14.731Z,1.97
2022-10-15T23:29:19.753Z,1.60
2022-10-15T23:31:24.316Z,1.67
2022-10-15T23:33:27.176Z,1.50
2022-10-15T23:35:30.134Z,1.77
2022-10-15T23:37:33.061Z,1.73
2022-10-15T23:39:35.909Z,1.40
2022-10-15T23:41:38.804Z,1.13
2022-10-15T23:43:41.829Z,1.40
2022-10-15T23:45:46.090Z,1.33
2022-10-15T23:47:48.944Z,1.50
2022-10-15T23:49:51.796Z,1.50
2022-10-15T23:51:54.656Z,1.70
2022-10-15T23:53:58.567Z,1.57
2022-10-15T23:56:02.564Z,1.30
2022-10-15T23:58:05.431Z,1.70
